TS Flower — V7RS6 — position and weather

sailwx.info

Track history (hours):
 
Tides and Currents Weather Stations Pressure Air Temp Water Temp Dewpoint Dewpoint Depression Visibility Wind Speed Wind Dir Waves Ship Positions

TS Flower

Last reported at 2018-Apr-26 22:59 UTC. Time now 2018-Apr-26 23:07 UTC.
Position N 46°20' E 030°39'.

Length 182 m; draft 6.8 m.

Type: Cargo ship. MMSI: 538006824.

Date/timePositionNaut miles runAvg speedWind from/ knotsBaromVisibWave heightAir tempDewpointWater temp
2018-Apr-26 22:59N 46°20' E 030°39'0 0.0
2018-Apr-26 21:44N 46°20' E 030°39'0 0.0
2018-Apr-26 21:29N 46°20' E 030°39'0 0.0
2018-Apr-26 19:05N 46°20' E 030°39'0 0.0
2018-Apr-26 18:59N 46°20' E 030°39'0 0.0
2018-Apr-26 18:29N 46°20' E 030°39'0 0.0
2018-Apr-26 17:59N 46°20' E 030°39'0 0.0
2018-Apr-26 15:50N 46°20' E 030°39'0 0.0
2018-Apr-26 14:53N 46°20' E 030°39'0 0.0
2018-Apr-26 14:02N 46°20' E 030°39'0 0.1
2018-Apr-26 13:59N 46°20' E 030°39'0 0.0
2018-Apr-26 13:05N 46°20' E 030°39'0 0.3
2018-Apr-26 12:59N 46°20' E 030°39'2 2.6
2018-Apr-26 12:23N 46°19' E 030°41'2 6.6
2018-Apr-26 12:00N 46°19' E 030°45'4 6.7
2018-Apr-26 11:22N 46°18' E 030°51'3 8.9
2018-Apr-26 11:00N 46°17' E 030°55'5510.7
2018-Apr-26 05:53N 45°23' E 030°42'1813.5
2018-Apr-26 04:34N 45°06' E 030°36'113.3
2018-Apr-26 04:29N 45°05' E 030°35'713.5
2018-Apr-26 04:00N 44°58' E 030°32'713.4
2018-Apr-26 03:30N 44°52' E 030°30'2513.6
2018-Apr-26 01:37N 44°27' E 030°19'513.8
2018-Apr-26 01:14N 44°22' E 030°17'1813.8
2018-Apr-25 23:56N 44°06' E 030°07'613.9
2018-Apr-25 23:30N 44°00' E 030°04'813.7
2018-Apr-25 22:56N 43°53' E 029°60'813.5
2018-Apr-25 22:22N 43°46' E 029°56'513.5
2018-Apr-25 22:00N 43°41' E 029°54'713.6
2018-Apr-25 21:30N 43°35' E 029°50'713.7
2018-Apr-25 21:00N 43°29' E 029°47'713.6
2018-Apr-25 20:30N 43°22' E 029°44'713.5
2018-Apr-25 20:00N 43°16' E 029°41'813.7
2018-Apr-25 19:24N 43°08' E 029°37'513.7
2018-Apr-25 19:00N 43°03' E 029°34'713.6
2018-Apr-25 18:30N 42°57' E 029°31'713.6
2018-Apr-25 18:00N 42°50' E 029°29'1813.7
2018-Apr-25 16:41N 42°33' E 029°21'413.7
2018-Apr-25 16:25N 42°29' E 029°20'7 1.5
2018-Apr-25 11:28N 42°22' E 029°18'0 0.7
2018-Apr-25 11:00N 42°23' E 029°17'0 0.7
2018-Apr-25 10:31N 42°23' E 029°17'0 0.9
2018-Apr-25 10:01N 42°23' E 029°17'1 1.0
2018-Apr-25 09:21N 42°24' E 029°16'0 0.9
2018-Apr-25 08:59N 42°24' E 029°16'0 1.0
2018-Apr-25 08:30N 42°24' E 029°15'0 1.0
2018-Apr-25 08:01N 42°24' E 029°14'8 0.5
2018-Apr-24 15:51N 42°17' E 029°21'8 0.7
2018-Apr-24 03:00N 42°12' E 029°30'2 0.6
2018-Apr-24 00:36N 42°14' E 029°30'0 0.5
2018-Apr-24 00:30N 42°14' E 029°30'0 0.1
2018-Apr-23 23:27N 42°14' E 029°30'1 2.3
2018-Apr-23 22:57N 42°13' E 029°30'2711.6
2018-Apr-23 20:37N 41°46' E 029°22'214.2
2018-Apr-23 20:29N 41°44' E 029°22'6610.4
2018-Apr-23 14:08N 40°41' E 028°55'0 2.6
2018-Apr-23 14:00N 40°41' E 028°55'  
Track history (hours):
 
Tides and Currents Weather Stations Pressure Air Temp Water Temp Dewpoint Dewpoint Depression Visibility Wind Speed Wind Dir Waves Ship Positions

TS Flower

Last reported at 2018-Apr-26 22:59 UTC. Time now 2018-Apr-26 23:07 UTC.
Position N 46°20' E 030°39'.

Length 182 m; draft 6.8 m.

Type: Cargo ship. MMSI: 538006824.

Date/timePositionNaut miles runAvg speedWind from/ knotsBaromVisibWave heightAir tempDewpointWater temp
2018-Apr-26 22:59N 46°20' E 030°39'0 0.0
2018-Apr-26 21:44N 46°20' E 030°39'0 0.0
2018-Apr-26 21:29N 46°20' E 030°39'0 0.0
2018-Apr-26 19:05N 46°20' E 030°39'0 0.0
2018-Apr-26 18:59N 46°20' E 030°39'0 0.0
2018-Apr-26 18:29N 46°20' E 030°39'0 0.0
2018-Apr-26 17:59N 46°20' E 030°39'0 0.0
2018-Apr-26 15:50N 46°20' E 030°39'0 0.0
2018-Apr-26 14:53N 46°20' E 030°39'0 0.0
2018-Apr-26 14:02N 46°20' E 030°39'0 0.1
2018-Apr-26 13:59N 46°20' E 030°39'0 0.0
2018-Apr-26 13:05N 46°20' E 030°39'0 0.3
2018-Apr-26 12:59N 46°20' E 030°39'2 2.6
2018-Apr-26 12:23N 46°19' E 030°41'2 6.6
2018-Apr-26 12:00N 46°19' E 030°45'4 6.7
2018-Apr-26 11:22N 46°18' E 030°51'3 8.9
2018-Apr-26 11:00N 46°17' E 030°55'5510.7
2018-Apr-26 05:53N 45°23' E 030°42'1813.5
2018-Apr-26 04:34N 45°06' E 030°36'113.3
2018-Apr-26 04:29N 45°05' E 030°35'713.5
2018-Apr-26 04:00N 44°58' E 030°32'713.4
2018-Apr-26 03:30N 44°52' E 030°30'2513.6
2018-Apr-26 01:37N 44°27' E 030°19'513.8
2018-Apr-26 01:14N 44°22' E 030°17'1813.8
2018-Apr-25 23:56N 44°06' E 030°07'613.9
2018-Apr-25 23:30N 44°00' E 030°04'813.7
2018-Apr-25 22:56N 43°53' E 029°60'813.5
2018-Apr-25 22:22N 43°46' E 029°56'513.5
2018-Apr-25 22:00N 43°41' E 029°54'713.6
2018-Apr-25 21:30N 43°35' E 029°50'713.7
2018-Apr-25 21:00N 43°29' E 029°47'713.6
2018-Apr-25 20:30N 43°22' E 029°44'713.5
2018-Apr-25 20:00N 43°16' E 029°41'813.7
2018-Apr-25 19:24N 43°08' E 029°37'513.7
2018-Apr-25 19:00N 43°03' E 029°34'713.6
2018-Apr-25 18:30N 42°57' E 029°31'713.6
2018-Apr-25 18:00N 42°50' E 029°29'1813.7
2018-Apr-25 16:41N 42°33' E 029°21'413.7
2018-Apr-25 16:25N 42°29' E 029°20'7 1.5
2018-Apr-25 11:28N 42°22' E 029°18'0 0.7
2018-Apr-25 11:00N 42°23' E 029°17'0 0.7
2018-Apr-25 10:31N 42°23' E 029°17'0 0.9
2018-Apr-25 10:01N 42°23' E 029°17'1 1.0
2018-Apr-25 09:21N 42°24' E 029°16'0 0.9
2018-Apr-25 08:59N 42°24' E 029°16'0 1.0
2018-Apr-25 08:30N 42°24' E 029°15'0 1.0
2018-Apr-25 08:01N 42°24' E 029°14'8 0.5
2018-Apr-24 15:51N 42°17' E 029°21'8 0.7
2018-Apr-24 03:00N 42°12' E 029°30'2 0.6
2018-Apr-24 00:36N 42°14' E 029°30'0 0.5
2018-Apr-24 00:30N 42°14' E 029°30'0 0.1
2018-Apr-23 23:27N 42°14' E 029°30'1 2.3
2018-Apr-23 22:57N 42°13' E 029°30'2711.6
2018-Apr-23 20:37N 41°46' E 029°22'214.2
2018-Apr-23 20:29N 41°44' E 029°22'6610.4
2018-Apr-23 14:08N 40°41' E 028°55'0 2.6
2018-Apr-23 14:00N 40°41' E 028°55'  

Dump ship's entire track history